sensor_id;sensor_type;location;lat;lon;timestamp;P1;durP1;ratioP1;P2;durP2;ratioP2
84486;SDS011;74710;48.436;10.602;2024-01-30T00:01:53;9.00;;;4.45;;
84486;SDS011;74710;48.436;10.602;2024-01-30T00:04:19;9.10;;;4.18;;
84486;SDS011;74710;48.436;10.602;2024-01-30T00:12:34;9.48;;;4.03;;
84486;SDS011;74710;48.436;10.602;2024-01-30T00:15:01;8.15;;;3.95;;
84486;SDS011;74710;48.436;10.602;2024-01-30T00:17:28;11.45;;;4.40;;
84486;SDS011;74710;48.436;10.602;2024-01-30T00:19:54;7.80;;;3.78;;
84486;SDS011;74710;48.436;10.602;2024-01-30T00:22:21;6.93;;;3.45;;
84486;SDS011;74710;48.436;10.602;2024-01-30T00:24:48;7.15;;;4.18;;
84486;SDS011;74710;48.436;10.602;2024-01-30T00:27:14;9.40;;;4.43;;
84486;SDS011;74710;48.436;10.602;2024-01-30T00:29:41;11.75;;;4.90;;
84486;SDS011;74710;48.436;10.602;2024-01-30T00:32:08;13.05;;;5.50;;
84486;SDS011;74710;48.436;10.602;2024-01-30T00:34:34;7.20;;;4.15;;
84486;SDS011;74710;48.436;10.602;2024-01-30T00:37:01;9.52;;;4.65;;
84486;SDS011;74710;48.436;10.602;2024-01-30T00:39:27;9.23;;;4.15;;
84486;SDS011;74710;48.436;10.602;2024-01-30T00:41:54;9.10;;;4.30;;
84486;SDS011;74710;48.436;10.602;2024-01-30T00:44:21;9.82;;;4.32;;
84486;SDS011;74710;48.436;10.602;2024-01-30T00:46:47;11.85;;;4.18;;
84486;SDS011;74710;48.436;10.602;2024-01-30T00:49:14;8.63;;;3.90;;
84486;SDS011;74710;48.436;10.602;2024-01-30T00:51:41;11.18;;;4.65;;
84486;SDS011;74710;48.436;10.602;2024-01-30T00:54:07;11.40;;;4.53;;
84486;SDS011;74710;48.436;10.602;2024-01-30T00:56:34;11.48;;;4.80;;
84486;SDS011;74710;48.436;10.602;2024-01-30T00:59:01;9.50;;;4.10;;
84486;SDS011;74710;48.436;10.602;2024-01-30T01:01:27;7.72;;;3.38;;
84486;SDS011;74710;48.436;10.602;2024-01-30T01:03:54;10.13;;;4.75;;
84486;SDS011;74710;48.436;10.602;2024-01-30T01:06:21;9.95;;;4.50;;
84486;SDS011;74710;48.436;10.602;2024-01-30T01:08:47;8.43;;;4.10;;
84486;SDS011;74710;48.436;10.602;2024-01-30T01:11:14;11.80;;;4.50;;
84486;SDS011;74710;48.436;10.602;2024-01-30T01:13:41;10.07;;;4.47;;
84486;SDS011;74710;48.436;10.602;2024-01-30T01:16:07;9.95;;;4.20;;
84486;SDS011;74710;48.436;10.602;2024-01-30T01:18:34;7.13;;;3.78;;
84486;SDS011;74710;48.436;10.602;2024-01-30T01:21:01;8.80;;;4.45;;
84486;SDS011;74710;48.436;10.602;2024-01-30T01:23:27;8.57;;;4.30;;
84486;SDS011;74710;48.436;10.602;2024-01-30T01:25:54;11.73;;;4.50;;
84486;SDS011;74710;48.436;10.602;2024-01-30T01:28:26;8.07;;;4.53;;
84486;SDS011;74710;48.436;10.602;2024-01-30T01:30:53;9.10;;;4.00;;
84486;SDS011;74710;48.436;10.602;2024-01-30T01:33:20;13.20;;;4.20;;
84486;SDS011;74710;48.436;10.602;2024-01-30T01:35:46;9.07;;;4.32;;
84486;SDS011;74710;48.436;10.602;2024-01-30T01:38:13;7.03;;;3.80;;
84486;SDS011;74710;48.436;10.602;2024-01-30T01:40:39;6.28;;;3.67;;
84486;SDS011;74710;48.436;10.602;2024-01-30T01:43:07;11.50;;;4.95;;
84486;SDS011;74710;48.436;10.602;2024-01-30T01:45:34;10.85;;;5.03;;
84486;SDS011;74710;48.436;10.602;2024-01-30T01:48:00;11.77;;;5.45;;
84486;SDS011;74710;48.436;10.602;2024-01-30T01:50:27;13.25;;;5.43;;
84486;SDS011;74710;48.436;10.602;2024-01-30T01:52:54;10.90;;;5.05;;
84486;SDS011;74710;48.436;10.602;2024-01-30T01:55:21;10.93;;;5.05;;
84486;SDS011;74710;48.436;10.602;2024-01-30T01:57:50;13.20;;;5.15;;
84486;SDS011;74710;48.436;10.602;2024-01-30T02:00:16;8.80;;;4.47;;
84486;SDS011;74710;48.436;10.602;2024-01-30T02:02:44;13.00;;;4.47;;
84486;SDS011;74710;48.436;10.602;2024-01-30T02:05:11;11.15;;;4.00;;
84486;SDS011;74710;48.436;10.602;2024-01-30T02:07:38;10.35;;;3.72;;
84486;SDS011;74710;48.436;10.602;2024-01-30T02:10:05;10.38;;;4.88;;
84486;SDS011;74710;48.436;10.602;2024-01-30T02:12:33;9.60;;;4.05;;
84486;SDS011;74710;48.436;10.602;2024-01-30T02:15:00;9.93;;;3.80;;
84486;SDS011;74710;48.436;10.602;2024-01-30T02:17:27;7.97;;;4.22;;
84486;SDS011;74710;48.436;10.602;2024-01-30T02:19:54;9.02;;;3.65;;
84486;SDS011;74710;48.436;10.602;2024-01-30T02:22:21;9.75;;;3.85;;
84486;SDS011;74710;48.436;10.602;2024-01-30T02:24:48;8.65;;;3.95;;
84486;SDS011;74710;48.436;10.602;2024-01-30T02:27:14;9.52;;;4.15;;
84486;SDS011;74710;48.436;10.602;2024-01-30T02:29:41;9.43;;;4.35;;
84486;SDS011;74710;48.436;10.602;2024-01-30T02:32:08;7.30;;;4.15;;
84486;SDS011;74710;48.436;10.602;2024-01-30T02:34:34;8.85;;;4.07;;
84486;SDS011;74710;48.436;10.602;2024-01-30T02:37:01;10.15;;;4.18;;
84486;SDS011;74710;48.436;10.602;2024-01-30T02:39:28;10.25;;;4.45;;
84486;SDS011;74710;48.436;10.602;2024-01-30T02:41:54;6.93;;;3.80;;
84486;SDS011;74710;48.436;10.602;2024-01-30T02:44:21;7.35;;;3.53;;
84486;SDS011;74710;48.436;10.602;2024-01-30T02:46:47;9.50;;;4.63;;
84486;SDS011;74710;48.436;10.602;2024-01-30T02:49:14;8.05;;;4.00;;
84486;SDS011;74710;48.436;10.602;2024-01-30T02:51:41;8.18;;;3.42;;
84486;SDS011;74710;48.436;10.602;2024-01-30T02:54:07;10.90;;;4.45;;
84486;SDS011;74710;48.436;10.602;2024-01-30T02:56:34;8.18;;;3.60;;
84486;SDS011;74710;48.436;10.602;2024-01-30T02:59:00;7.60;;;3.55;;
84486;SDS011;74710;48.436;10.602;2024-01-30T03:01:27;12.20;;;4.32;;
84486;SDS011;74710;48.436;10.602;2024-01-30T03:03:54;5.93;;;3.28;;
84486;SDS011;74710;48.436;10.602;2024-01-30T03:06:20;7.97;;;3.45;;
84486;SDS011;74710;48.436;10.602;2024-01-30T03:08:49;7.18;;;3.17;;
84486;SDS011;74710;48.436;10.602;2024-01-30T03:11:15;9.05;;;4.25;;
84486;SDS011;74710;48.436;10.602;2024-01-30T03:13:42;10.60;;;3.30;;
84486;SDS011;74710;48.436;10.602;2024-01-30T03:16:08;8.52;;;3.85;;
84486;SDS011;74710;48.436;10.602;2024-01-30T03:18:35;6.63;;;3.47;;
84486;SDS011;74710;48.436;10.602;2024-01-30T03:21:02;10.75;;;4.00;;
84486;SDS011;74710;48.436;10.602;2024-01-30T03:23:28;9.07;;;3.95;;
84486;SDS011;74710;48.436;10.602;2024-01-30T03:25:55;10.98;;;3.95;;
84486;SDS011;74710;48.436;10.602;2024-01-30T03:28:22;7.32;;;3.70;;
84486;SDS011;74710;48.436;10.602;2024-01-30T03:30:48;5.75;;;3.08;;
84486;SDS011;74710;48.436;10.602;2024-01-30T03:33:15;8.00;;;3.17;;
84486;SDS011;74710;48.436;10.602;2024-01-30T03:35:42;7.20;;;3.70;;
84486;SDS011;74710;48.436;10.602;2024-01-30T03:38:09;8.82;;;3.22;;
84486;SDS011;74710;48.436;10.602;2024-01-30T03:40:35;9.50;;;3.95;;
84486;SDS011;74710;48.436;10.602;2024-01-30T03:43:02;7.93;;;3.40;;
84486;SDS011;74710;48.436;10.602;2024-01-30T03:45:29;8.13;;;3.70;;
84486;SDS011;74710;48.436;10.602;2024-01-30T03:47:55;7.63;;;3.53;;
84486;SDS011;74710;48.436;10.602;2024-01-30T03:50:22;8.98;;;3.70;;
84486;SDS011;74710;48.436;10.602;2024-01-30T03:52:48;10.55;;;3.83;;
84486;SDS011;74710;48.436;10.602;2024-01-30T03:55:15;8.68;;;3.50;;
84486;SDS011;74710;48.436;10.602;2024-01-30T03:57:41;20.55;;;7.28;;
84486;SDS011;74710;48.436;10.602;2024-01-30T04:00:08;16.33;;;6.30;;
84486;SDS011;74710;48.436;10.602;2024-01-30T04:02:35;22.30;;;6.95;;
84486;SDS011;74710;48.436;10.602;2024-01-30T04:05:01;12.10;;;4.68;;
84486;SDS011;74710;48.436;10.602;2024-01-30T04:07:28;9.88;;;3.90;;
84486;SDS011;74710;48.436;10.602;2024-01-30T04:09:55;10.48;;;4.85;;
84486;SDS011;74710;48.436;10.602;2024-01-30T04:12:22;13.15;;;4.65;;
84486;SDS011;74710;48.436;10.602;2024-01-30T04:14:48;12.88;;;4.75;;
84486;SDS011;74710;48.436;10.602;2024-01-30T04:17:15;10.73;;;3.92;;
84486;SDS011;74710;48.436;10.602;2024-01-30T04:19:42;7.20;;;3.53;;
84486;SDS011;74710;48.436;10.602;2024-01-30T04:22:08;12.23;;;4.50;;
84486;SDS011;74710;48.436;10.602;2024-01-30T04:24:35;11.15;;;4.10;;
84486;SDS011;74710;48.436;10.602;2024-01-30T04:27:01;10.00;;;3.65;;
84486;SDS011;74710;48.436;10.602;2024-01-30T04:29:28;9.48;;;4.20;;
84486;SDS011;74710;48.436;10.602;2024-01-30T04:31:55;10.77;;;4.68;;
84486;SDS011;74710;48.436;10.602;2024-01-30T04:34:21;10.55;;;3.83;;
84486;SDS011;74710;48.436;10.602;2024-01-30T04:36:48;8.88;;;3.90;;
84486;SDS011;74710;48.436;10.602;2024-01-30T04:39:14;15.77;;;4.90;;
84486;SDS011;74710;48.436;10.602;2024-01-30T04:41:41;7.78;;;3.65;;
84486;SDS011;74710;48.436;10.602;2024-01-30T04:44:08;10.50;;;3.90;;
84486;SDS011;74710;48.436;10.602;2024-01-30T04:46:34;8.27;;;4.13;;
84486;SDS011;74710;48.436;10.602;2024-01-30T04:49:01;7.47;;;3.92;;
84486;SDS011;74710;48.436;10.602;2024-01-30T04:51:27;9.25;;;3.72;;
84486;SDS011;74710;48.436;10.602;2024-01-30T04:53:54;10.32;;;4.13;;
84486;SDS011;74710;48.436;10.602;2024-01-30T04:56:21;12.32;;;4.18;;
84486;SDS011;74710;48.436;10.602;2024-01-30T04:58:47;11.93;;;5.05;;
84486;SDS011;74710;48.436;10.602;2024-01-30T05:01:17;11.23;;;4.28;;
84486;SDS011;74710;48.436;10.602;2024-01-30T05:03:44;8.60;;;4.25;;
84486;SDS011;74710;48.436;10.602;2024-01-30T05:06:10;8.82;;;4.03;;
84486;SDS011;74710;48.436;10.602;2024-01-30T05:08:37;10.35;;;3.95;;
84486;SDS011;74710;48.436;10.602;2024-01-30T05:11:07;9.23;;;3.60;;
84486;SDS011;74710;48.436;10.602;2024-01-30T05:13:33;6.82;;;3.47;;
84486;SDS011;74710;48.436;10.602;2024-01-30T05:16:01;6.57;;;3.30;;
84486;SDS011;74710;48.436;10.602;2024-01-30T05:18:28;8.05;;;4.13;;
84486;SDS011;74710;48.436;10.602;2024-01-30T05:20:55;8.70;;;4.13;;
84486;SDS011;74710;48.436;10.602;2024-01-30T05:23:21;8.18;;;3.53;;
84486;SDS011;74710;48.436;10.602;2024-01-30T05:25:48;9.55;;;3.78;;
84486;SDS011;74710;48.436;10.602;2024-01-30T05:28:15;11.85;;;4.50;;
84486;SDS011;74710;48.436;10.602;2024-01-30T05:30:41;9.25;;;3.97;;
84486;SDS011;74710;48.436;10.602;2024-01-30T05:33:08;8.35;;;3.95;;
84486;SDS011;74710;48.436;10.602;2024-01-30T05:35:36;6.60;;;3.35;;
84486;SDS011;74710;48.436;10.602;2024-01-30T05:38:02;5.75;;;3.38;;
84486;SDS011;74710;48.436;10.602;2024-01-30T05:40:29;7.68;;;3.45;;
84486;SDS011;74710;48.436;10.602;2024-01-30T05:42:56;10.65;;;3.78;;
84486;SDS011;74710;48.436;10.602;2024-01-30T05:45:27;8.73;;;3.22;;
84486;SDS011;74710;48.436;10.602;2024-01-30T05:47:53;6.72;;;3.10;;
84486;SDS011;74710;48.436;10.602;2024-01-30T05:50:20;8.52;;;3.35;;
84486;SDS011;74710;48.436;10.602;2024-01-30T05:52:49;4.47;;;2.78;;
84486;SDS011;74710;48.436;10.602;2024-01-30T05:55:16;9.18;;;3.97;;
84486;SDS011;74710;48.436;10.602;2024-01-30T05:57:43;6.80;;;3.40;;
84486;SDS011;74710;48.436;10.602;2024-01-30T06:00:09;8.20;;;3.15;;
84486;SDS011;74710;48.436;10.602;2024-01-30T06:02:36;6.40;;;3.05;;
84486;SDS011;74710;48.436;10.602;2024-01-30T06:05:03;10.80;;;3.42;;
84486;SDS011;74710;48.436;10.602;2024-01-30T06:07:29;7.28;;;2.78;;
84486;SDS011;74710;48.436;10.602;2024-01-30T06:10:01;6.47;;;2.63;;
84486;SDS011;74710;48.436;10.602;2024-01-30T06:12:29;10.57;;;3.42;;
84486;SDS011;74710;48.436;10.602;2024-01-30T06:14:55;7.22;;;2.80;;
84486;SDS011;74710;48.436;10.602;2024-01-30T06:17:23;5.75;;;3.15;;
84486;SDS011;74710;48.436;10.602;2024-01-30T06:19:50;9.27;;;2.88;;
84486;SDS011;74710;48.436;10.602;2024-01-30T06:22:16;6.75;;;3.10;;
84486;SDS011;74710;48.436;10.602;2024-01-30T06:24:43;7.15;;;2.90;;
84486;SDS011;74710;48.436;10.602;2024-01-30T06:27:11;9.05;;;3.08;;
84486;SDS011;74710;48.436;10.602;2024-01-30T06:29:38;6.78;;;2.88;;
84486;SDS011;74710;48.436;10.602;2024-01-30T06:32:04;7.10;;;2.88;;
84486;SDS011;74710;48.436;10.602;2024-01-30T06:34:31;7.75;;;3.15;;
84486;SDS011;74710;48.436;10.602;2024-01-30T06:36:58;6.45;;;2.40;;
84486;SDS011;74710;48.436;10.602;2024-01-30T06:39:25;5.32;;;3.13;;
84486;SDS011;74710;48.436;10.602;2024-01-30T06:41:52;7.68;;;3.22;;
84486;SDS011;74710;48.436;10.602;2024-01-30T06:44:19;7.93;;;2.97;;
84486;SDS011;74710;48.436;10.602;2024-01-30T06:46:45;5.28;;;2.75;;
84486;SDS011;74710;48.436;10.602;2024-01-30T06:49:12;6.47;;;3.60;;
84486;SDS011;74710;48.436;10.602;2024-01-30T06:51:39;8.35;;;3.58;;
84486;SDS011;74710;48.436;10.602;2024-01-30T06:54:05;6.10;;;2.67;;
84486;SDS011;74710;48.436;10.602;2024-01-30T06:56:32;6.60;;;3.35;;
84486;SDS011;74710;48.436;10.602;2024-01-30T06:58:58;7.30;;;2.85;;
84486;SDS011;74710;48.436;10.602;2024-01-30T07:01:29;9.32;;;3.42;;
84486;SDS011;74710;48.436;10.602;2024-01-30T07:03:57;7.53;;;3.30;;
84486;SDS011;74710;48.436;10.602;2024-01-30T07:06:24;6.53;;;2.85;;
84486;SDS011;74710;48.436;10.602;2024-01-30T07:08:50;7.72;;;3.05;;
84486;SDS011;74710;48.436;10.602;2024-01-30T07:11:20;8.10;;;3.45;;
84486;SDS011;74710;48.436;10.602;2024-01-30T07:13:48;9.98;;;2.88;;
84486;SDS011;74710;48.436;10.602;2024-01-30T07:16:15;9.68;;;3.20;;
84486;SDS011;74710;48.436;10.602;2024-01-30T07:18:42;8.50;;;2.78;;
84486;SDS011;74710;48.436;10.602;2024-01-30T07:21:09;6.78;;;2.67;;
84486;SDS011;74710;48.436;10.602;2024-01-30T07:23:37;4.88;;;2.47;;
84486;SDS011;74710;48.436;10.602;2024-01-30T07:26:05;11.18;;;3.05;;
84486;SDS011;74710;48.436;10.602;2024-01-30T07:28:33;8.40;;;3.15;;
84486;SDS011;74710;48.436;10.602;2024-01-30T07:31:00;6.93;;;2.78;;
84486;SDS011;74710;48.436;10.602;2024-01-30T07:33:26;6.63;;;3.40;;
84486;SDS011;74710;48.436;10.602;2024-01-30T07:35:53;8.35;;;3.60;;
84486;SDS011;74710;48.436;10.602;2024-01-30T07:38:20;8.52;;;3.72;;
84486;SDS011;74710;48.436;10.602;2024-01-30T07:40:47;8.32;;;3.97;;
84486;SDS011;74710;48.436;10.602;2024-01-30T07:43:13;8.80;;;3.63;;
84486;SDS011;74710;48.436;10.602;2024-01-30T07:45:40;7.13;;;3.55;;
84486;SDS011;74710;48.436;10.602;2024-01-30T07:48:07;12.60;;;4.57;;
84486;SDS011;74710;48.436;10.602;2024-01-30T07:50:34;8.98;;;3.38;;
84486;SDS011;74710;48.436;10.602;2024-01-30T07:53:01;9.80;;;3.60;;
84486;SDS011;74710;48.436;10.602;2024-01-30T07:55:28;7.47;;;3.30;;
84486;SDS011;74710;48.436;10.602;2024-01-30T07:57:55;6.22;;;3.05;;
84486;SDS011;74710;48.436;10.602;2024-01-30T08:00:22;10.57;;;3.92;;
84486;SDS011;74710;48.436;10.602;2024-01-30T08:02:49;6.57;;;3.40;;
84486;SDS011;74710;48.436;10.602;2024-01-30T08:05:15;9.05;;;3.30;;
84486;SDS011;74710;48.436;10.602;2024-01-30T08:07:42;9.25;;;3.60;;
84486;SDS011;74710;48.436;10.602;2024-01-30T08:10:11;8.15;;;3.78;;
84486;SDS011;74710;48.436;10.602;2024-01-30T08:12:38;12.00;;;4.03;;
84486;SDS011;74710;48.436;10.602;2024-01-30T08:15:04;9.95;;;4.30;;
84486;SDS011;74710;48.436;10.602;2024-01-30T08:17:31;6.65;;;3.45;;
84486;SDS011;74710;48.436;10.602;2024-01-30T08:19:58;8.05;;;3.40;;
84486;SDS011;74710;48.436;10.602;2024-01-30T08:22:24;10.15;;;4.03;;
84486;SDS011;74710;48.436;10.602;2024-01-30T08:24:51;14.05;;;5.05;;
84486;SDS011;74710;48.436;10.602;2024-01-30T08:27:18;8.38;;;3.97;;
84486;SDS011;74710;48.436;10.602;2024-01-30T08:29:44;8.60;;;3.78;;
84486;SDS011;74710;48.436;10.602;2024-01-30T08:32:11;9.13;;;4.45;;
84486;SDS011;74710;48.436;10.602;2024-01-30T08:34:37;10.88;;;4.18;;
84486;SDS011;74710;48.436;10.602;2024-01-30T08:37:04;7.65;;;3.78;;
84486;SDS011;74710;48.436;10.602;2024-01-30T08:39:31;9.18;;;3.80;;
84486;SDS011;74710;48.436;10.602;2024-01-30T08:41:57;8.75;;;4.65;;
84486;SDS011;74710;48.436;10.602;2024-01-30T08:44:24;9.68;;;4.78;;
84486;SDS011;74710;48.436;10.602;2024-01-30T08:46:51;9.65;;;4.38;;
84486;SDS011;74710;48.436;10.602;2024-01-30T08:49:17;10.85;;;4.47;;
84486;SDS011;74710;48.436;10.602;2024-01-30T08:51:44;7.15;;;3.90;;
84486;SDS011;74710;48.436;10.602;2024-01-30T08:54:11;6.72;;;3.80;;
84486;SDS011;74710;48.436;10.602;2024-01-30T08:56:38;6.22;;;3.70;;
84486;SDS011;74710;48.436;10.602;2024-01-30T08:59:04;6.78;;;3.88;;
84486;SDS011;74710;48.436;10.602;2024-01-30T09:01:31;7.20;;;4.10;;
84486;SDS011;74710;48.436;10.602;2024-01-30T09:03:58;8.13;;;4.47;;
84486;SDS011;74710;48.436;10.602;2024-01-30T09:06:24;6.85;;;4.13;;
84486;SDS011;74710;48.436;10.602;2024-01-30T09:08:54;6.45;;;4.25;;
84486;SDS011;74710;48.436;10.602;2024-01-30T09:11:20;5.75;;;4.00;;
84486;SDS011;74710;48.436;10.602;2024-01-30T09:13:47;9.40;;;4.55;;
84486;SDS011;74710;48.436;10.602;2024-01-30T09:16:14;6.20;;;3.80;;
84486;SDS011;74710;48.436;10.602;2024-01-30T09:18:42;8.75;;;4.63;;
84486;SDS011;74710;48.436;10.602;2024-01-30T09:21:09;10.73;;;5.03;;
84486;SDS011;74710;48.436;10.602;2024-01-30T09:23:36;9.63;;;4.38;;
84486;SDS011;74710;48.436;10.602;2024-01-30T09:26:02;8.13;;;4.72;;
84486;SDS011;74710;48.436;10.602;2024-01-30T09:28:29;7.40;;;4.40;;
84486;SDS011;74710;48.436;10.602;2024-01-30T09:30:56;9.55;;;4.63;;
84486;SDS011;74710;48.436;10.602;2024-01-30T09:33:22;7.45;;;3.80;;
84486;SDS011;74710;48.436;10.602;2024-01-30T09:35:49;9.27;;;4.78;;
84486;SDS011;74710;48.436;10.602;2024-01-30T09:38:16;7.90;;;4.30;;
84486;SDS011;74710;48.436;10.602;2024-01-30T09:40:42;8.30;;;4.55;;
84486;SDS011;74710;48.436;10.602;2024-01-30T09:43:09;9.80;;;4.88;;
84486;SDS011;74710;48.436;10.602;2024-01-30T09:45:42;8.35;;;4.55;;
84486;SDS011;74710;48.436;10.602;2024-01-30T09:48:08;10.50;;;5.13;;
84486;SDS011;74710;48.436;10.602;2024-01-30T09:50:35;10.15;;;4.93;;
84486;SDS011;74710;48.436;10.602;2024-01-30T09:53:03;8.45;;;4.43;;
84486;SDS011;74710;48.436;10.602;2024-01-30T09:55:30;7.90;;;4.85;;
84486;SDS011;74710;48.436;10.602;2024-01-30T09:57:57;7.10;;;4.07;;
84486;SDS011;74710;48.436;10.602;2024-01-30T10:00:23;7.93;;;5.10;;
84486;SDS011;74710;48.436;10.602;2024-01-30T10:02:53;10.00;;;4.97;;
84486;SDS011;74710;48.436;10.602;2024-01-30T10:05:20;9.07;;;5.00;;
84486;SDS011;74710;48.436;10.602;2024-01-30T10:07:55;8.52;;;4.97;;
84486;SDS011;74710;48.436;10.602;2024-01-30T10:10:22;9.48;;;5.20;;
84486;SDS011;74710;48.436;10.602;2024-01-30T10:12:50;10.85;;;4.97;;
84486;SDS011;74710;48.436;10.602;2024-01-30T10:15:19;8.43;;;4.80;;
84486;SDS011;74710;48.436;10.602;2024-01-30T10:17:46;7.55;;;4.93;;
84486;SDS011;74710;48.436;10.602;2024-01-30T10:20:13;9.63;;;5.10;;
84486;SDS011;74710;48.436;10.602;2024-01-30T10:22:43;9.60;;;4.90;;
84486;SDS011;74710;48.436;10.602;2024-01-30T10:25:10;10.77;;;6.00;;
84486;SDS011;74710;48.436;10.602;2024-01-30T10:27:39;10.40;;;5.45;;
84486;SDS011;74710;48.436;10.602;2024-01-30T10:30:06;9.77;;;5.05;;
84486;SDS011;74710;48.436;10.602;2024-01-30T10:32:34;11.50;;;5.82;;
84486;SDS011;74710;48.436;10.602;2024-01-30T10:35:00;11.82;;;6.47;;
84486;SDS011;74710;48.436;10.602;2024-01-30T10:37:27;13.98;;;6.40;;
84486;SDS011;74710;48.436;10.602;2024-01-30T10:39:57;11.88;;;6.07;;
84486;SDS011;74710;48.436;10.602;2024-01-30T10:42:28;11.15;;;5.30;;
84486;SDS011;74710;48.436;10.602;2024-01-30T10:45:00;12.45;;;5.63;;
84486;SDS011;74710;48.436;10.602;2024-01-30T10:47:30;14.07;;;7.10;;
84486;SDS011;74710;48.436;10.602;2024-01-30T10:49:56;15.60;;;6.80;;
84486;SDS011;74710;48.436;10.602;2024-01-30T10:52:24;14.98;;;6.72;;
84486;SDS011;74710;48.436;10.602;2024-01-30T10:54:55;17.48;;;6.90;;
84486;SDS011;74710;48.436;10.602;2024-01-30T10:57:22;11.98;;;6.70;;
84486;SDS011;74710;48.436;10.602;2024-01-30T10:59:49;12.93;;;5.90;;
84486;SDS011;74710;48.436;10.602;2024-01-30T11:02:17;13.25;;;7.15;;
84486;SDS011;74710;48.436;10.602;2024-01-30T11:04:45;12.52;;;6.05;;
84486;SDS011;74710;48.436;10.602;2024-01-30T11:07:18;12.30;;;6.60;;
84486;SDS011;74710;48.436;10.602;2024-01-30T11:09:52;10.35;;;5.65;;
84486;SDS011;74710;48.436;10.602;2024-01-30T11:12:22;12.35;;;6.05;;
84486;SDS011;74710;48.436;10.602;2024-01-30T11:14:50;13.18;;;6.45;;
84486;SDS011;74710;48.436;10.602;2024-01-30T11:17:16;10.32;;;5.88;;
84486;SDS011;74710;48.436;10.602;2024-01-30T11:19:44;12.25;;;6.30;;
84486;SDS011;74710;48.436;10.602;2024-01-30T11:22:12;13.00;;;6.03;;
84486;SDS011;74710;48.436;10.602;2024-01-30T11:24:42;12.27;;;5.70;;
84486;SDS011;74710;48.436;10.602;2024-01-30T11:27:09;10.93;;;5.57;;
84486;SDS011;74710;48.436;10.602;2024-01-30T11:29:36;12.15;;;5.57;;
84486;SDS011;74710;48.436;10.602;2024-01-30T11:32:04;9.10;;;5.18;;
84486;SDS011;74710;48.436;10.602;2024-01-30T11:34:32;8.25;;;5.28;;
84486;SDS011;74710;48.436;10.602;2024-01-30T11:37:00;9.13;;;5.20;;
84486;SDS011;74710;48.436;10.602;2024-01-30T11:39:31;11.70;;;5.25;;
84486;SDS011;74710;48.436;10.602;2024-01-30T11:41:58;9.85;;;5.35;;
84486;SDS011;74710;48.436;10.602;2024-01-30T11:44:25;9.90;;;5.70;;
84486;SDS011;74710;48.436;10.602;2024-01-30T11:46:52;9.18;;;4.95;;
84486;SDS011;74710;48.436;10.602;2024-01-30T11:49:19;10.85;;;6.00;;
84486;SDS011;74710;48.436;10.602;2024-01-30T11:51:46;10.02;;;5.85;;
84486;SDS011;74710;48.436;10.602;2024-01-30T11:54:15;11.93;;;6.13;;
84486;SDS011;74710;48.436;10.602;2024-01-30T11:56:42;13.82;;;5.88;;
84486;SDS011;74710;48.436;10.602;2024-01-30T11:59:09;10.30;;;5.53;;
84486;SDS011;74710;48.436;10.602;2024-01-30T12:01:36;9.73;;;5.45;;
84486;SDS011;74710;48.436;10.602;2024-01-30T12:04:03;10.07;;;5.50;;
84486;SDS011;74710;48.436;10.602;2024-01-30T12:06:29;11.32;;;5.85;;
84486;SDS011;74710;48.436;10.602;2024-01-30T12:11:24;10.60;;;5.53;;
84486;SDS011;74710;48.436;10.602;2024-01-30T12:13:51;9.52;;;5.55;;
84486;SDS011;74710;48.436;10.602;2024-01-30T12:16:18;12.15;;;6.18;;
84486;SDS011;74710;48.436;10.602;2024-01-30T12:18:44;9.73;;;5.43;;
84486;SDS011;74710;48.436;10.602;2024-01-30T12:21:11;9.70;;;5.13;;
84486;SDS011;74710;48.436;10.602;2024-01-30T12:23:38;10.57;;;5.22;;
84486;SDS011;74710;48.436;10.602;2024-01-30T12:26:04;10.20;;;5.25;;
84486;SDS011;74710;48.436;10.602;2024-01-30T12:28:33;11.63;;;5.70;;
84486;SDS011;74710;48.436;10.602;2024-01-30T12:31:03;10.90;;;6.03;;
84486;SDS011;74710;48.436;10.602;2024-01-30T12:33:30;7.30;;;4.80;;
84486;SDS011;74710;48.436;10.602;2024-01-30T12:36:01;13.60;;;5.75;;
84486;SDS011;74710;48.436;10.602;2024-01-30T12:38:29;10.25;;;5.93;;
84486;SDS011;74710;48.436;10.602;2024-01-30T12:40:56;10.13;;;5.60;;
84486;SDS011;74710;48.436;10.602;2024-01-30T12:43:23;11.25;;;5.80;;
84486;SDS011;74710;48.436;10.602;2024-01-30T12:46:03;11.30;;;5.70;;
84486;SDS011;74710;48.436;10.602;2024-01-30T12:48:30;9.93;;;5.63;;
84486;SDS011;74710;48.436;10.602;2024-01-30T12:50:56;12.38;;;5.47;;
84486;SDS011;74710;48.436;10.602;2024-01-30T12:53:23;13.35;;;5.93;;
84486;SDS011;74710;48.436;10.602;2024-01-30T12:55:50;11.38;;;5.32;;
84486;SDS011;74710;48.436;10.602;2024-01-30T12:58:17;10.07;;;4.90;;
84486;SDS011;74710;48.436;10.602;2024-01-30T13:00:43;8.77;;;5.00;;
84486;SDS011;74710;48.436;10.602;2024-01-30T13:03:11;7.15;;;4.47;;
84486;SDS011;74710;48.436;10.602;2024-01-30T13:05:38;9.32;;;5.47;;
84486;SDS011;74710;48.436;10.602;2024-01-30T13:08:05;7.88;;;4.63;;
84486;SDS011;74710;48.436;10.602;2024-01-30T13:10:31;13.25;;;5.05;;
84486;SDS011;74710;48.436;10.602;2024-01-30T13:12:58;12.20;;;5.03;;
84486;SDS011;74710;48.436;10.602;2024-01-30T13:15:25;9.15;;;5.20;;
84486;SDS011;74710;48.436;10.602;2024-01-30T13:17:51;10.88;;;5.63;;
84486;SDS011;74710;48.436;10.602;2024-01-30T13:20:20;12.55;;;5.63;;
84486;SDS011;74710;48.436;10.602;2024-01-30T13:22:48;9.20;;;4.72;;
84486;SDS011;74710;48.436;10.602;2024-01-30T13:25:16;10.27;;;5.78;;
84486;SDS011;74710;48.436;10.602;2024-01-30T13:27:43;9.13;;;5.40;;
84486;SDS011;74710;48.436;10.602;2024-01-30T13:30:10;10.88;;;6.32;;
84486;SDS011;74710;48.436;10.602;2024-01-30T13:32:36;11.80;;;5.57;;
84486;SDS011;74710;48.436;10.602;2024-01-30T13:35:03;9.85;;;5.32;;
84486;SDS011;74710;48.436;10.602;2024-01-30T13:37:30;7.80;;;5.13;;
84486;SDS011;74710;48.436;10.602;2024-01-30T13:39:57;7.97;;;5.60;;
84486;SDS011;74710;48.436;10.602;2024-01-30T13:42:24;10.18;;;4.07;;
84486;SDS011;74710;48.436;10.602;2024-01-30T13:44:51;11.63;;;4.72;;
84486;SDS011;74710;48.436;10.602;2024-01-30T13:47:18;8.00;;;4.68;;
84486;SDS011;74710;48.436;10.602;2024-01-30T13:49:48;7.95;;;4.90;;
84486;SDS011;74710;48.436;10.602;2024-01-30T13:52:14;8.85;;;4.60;;
84486;SDS011;74710;48.436;10.602;2024-01-30T13:54:41;8.48;;;5.55;;
84486;SDS011;74710;48.436;10.602;2024-01-30T13:57:09;9.57;;;4.65;;
84486;SDS011;74710;48.436;10.602;2024-01-30T13:59:37;7.53;;;4.43;;
84486;SDS011;74710;48.436;10.602;2024-01-30T14:02:04;7.53;;;4.43;;
84486;SDS011;74710;48.436;10.602;2024-01-30T14:04:30;7.88;;;4.45;;
84486;SDS011;74710;48.436;10.602;2024-01-30T14:06:57;6.15;;;3.80;;
84486;SDS011;74710;48.436;10.602;2024-01-30T14:09:30;13.63;;;5.75;;
84486;SDS011;74710;48.436;10.602;2024-01-30T14:11:58;9.07;;;5.10;;
84486;SDS011;74710;48.436;10.602;2024-01-30T14:14:25;8.57;;;4.55;;
84486;SDS011;74710;48.436;10.602;2024-01-30T14:16:52;9.15;;;4.82;;
84486;SDS011;74710;48.436;10.602;2024-01-30T14:19:18;10.27;;;5.32;;
84486;SDS011;74710;48.436;10.602;2024-01-30T14:21:45;9.30;;;6.20;;
84486;SDS011;74710;48.436;10.602;2024-01-30T14:24:12;10.30;;;5.55;;
84486;SDS011;74710;48.436;10.602;2024-01-30T14:26:38;7.03;;;4.20;;
84486;SDS011;74710;48.436;10.602;2024-01-30T14:29:05;7.93;;;4.10;;
84486;SDS011;74710;48.436;10.602;2024-01-30T14:31:31;7.85;;;4.72;;
84486;SDS011;74710;48.436;10.602;2024-01-30T14:33:58;8.07;;;4.28;;
84486;SDS011;74710;48.436;10.602;2024-01-30T14:36:25;9.35;;;5.82;;
84486;SDS011;74710;48.436;10.602;2024-01-30T14:38:55;12.18;;;6.53;;